Time;durP1;ratioP1;P1;durP2;ratioP2;P2;SDS_P1;SDS_P2;PMS_P1;PMS_P2;Temp;Humidity;BMP_temperature;BMP_pressure;BME280_temperature;BME280_humidity;BME280_pressure;Samples;Min_cycle;Max_cycle;Signal;HPM_P1;HPM_P2
2023/01/21 00:01:26;;;;;;;76.63;27.83;;;;;;;;;;5031179;28;20046;-78
2023/01/21 00:03:53;;;;;;;87.15;29.27;;;;;;;;;;5031042;28;20116;-77
2023/01/21 00:06:19;;;;;;;94.45;29.92;;;;;;;;;;5034321;28;20080;-77
2023/01/21 00:08:46;;;;;;;86.78;29.35;;;;;;;;;;5034464;28;20050;-78
2023/01/21 00:11:13;;;;;;;83.38;29.20;;;;;;;;;;5034636;28;20050;-77
2023/01/21 00:13:40;;;;;;;88.38;29.25;;;;;;;;;;5034962;28;20045;-77
2023/01/21 00:16:07;;;;;;;86.30;28.13;;;;;;;;;;5033749;28;20053;-77
2023/01/21 00:18:34;;;;;;;85.38;27.52;;;;;;;;;;5034094;28;20045;-77
2023/01/21 00:21:00;;;;;;;97.78;29.90;;;;;;;;;;5035870;28;20132;-79
2023/01/21 00:23:27;;;;;;;80.65;27.90;;;;;;;;;;5036588;28;20049;-79
2023/01/21 00:26:00;;;;;;;88.03;27.50;;;;;;;;;;5035801;28;20126;-78
2023/01/21 00:28:30;;;;;;;89.32;28.50;;;;;;;;;;5035212;28;20067;-79
2023/01/21 00:30:58;;;;;;;89.53;27.75;;;;;;;;;;5035805;28;20057;-79
2023/01/21 00:33:25;;;;;;;81.32;27.65;;;;;;;;;;5035879;28;20056;-79
2023/01/21 00:35:57;;;;;;;84.03;25.88;;;;;;;;;;5035595;28;20147;-79
2023/01/21 00:38:23;;;;;;;69.28;23.33;;;;;;;;;;5039422;28;20073;-79
2023/01/21 00:40:50;;;;;;;69.13;23.45;;;;;;;;;;5037617;28;20421;-78
2023/01/21 00:43:16;;;;;;;75.75;24.67;;;;;;;;;;5037503;28;20207;-79
2023/01/21 00:45:42;;;;;;;71.57;22.67;;;;;;;;;;5035761;28;20050;-78
2023/01/21 00:48:09;;;;;;;65.15;22.02;;;;;;;;;;5036403;28;20054;-79
2023/01/21 00:50:35;;;;;;;73.35;24.23;;;;;;;;;;5039729;28;20045;-79
2023/01/21 00:53:02;;;;;;;71.85;23.42;;;;;;;;;;5040186;28;20051;-79
2023/01/21 00:55:28;;;;;;;72.63;22.38;;;;;;;;;;5041984;28;20042;-79
2023/01/21 00:57:55;;;;;;;72.53;23.20;;;;;;;;;;5046382;28;20053;-79
2023/01/21 01:00:21;;;;;;;61.72;21.63;;;;;;;;;;5050124;28;20052;-78
2023/01/21 01:02:51;;;;;;;68.43;23.40;;;;;;;;;;5067756;28;20174;-79
2023/01/21 01:05:18;;;;;;;73.72;22.45;;;;;;;;;;5066541;28;20053;-78
2023/01/21 01:07:46;;;;;;;66.88;20.95;;;;;;;;;;5065917;28;20128;-79
2023/01/21 01:10:12;;;;;;;77.55;22.70;;;;;;;;;;5041113;28;20061;-79
2023/01/21 01:12:39;;;;;;;67.70;23.58;;;;;;;;;;5045962;28;20279;-79
2023/01/21 01:15:06;;;;;;;67.93;21.48;;;;;;;;;;5037876;28;20073;-79
2023/01/21 01:17:34;;;;;;;61.83;19.58;;;;;;;;;;5014440;28;20049;-78
2023/01/21 01:20:01;;;;;;;65.35;20.15;;;;;;;;;;5027929;28;20418;-79
2023/01/21 01:22:27;;;;;;;76.72;22.63;;;;;;;;;;5025073;28;20161;-79
2023/01/21 01:24:54;;;;;;;67.50;21.92;;;;;;;;;;5034543;28;20464;-80
2023/01/21 01:27:20;;;;;;;72.88;21.38;;;;;;;;;;5035090;28;20080;-80
2023/01/21 01:29:47;;;;;;;74.55;21.67;;;;;;;;;;5035003;28;20058;-79
2023/01/21 01:32:13;;;;;;;68.40;21.33;;;;;;;;;;5035656;28;20053;-79
2023/01/21 01:34:40;;;;;;;75.25;22.85;;;;;;;;;;5039392;28;20140;-78
2023/01/21 01:37:06;;;;;;;74.88;21.58;;;;;;;;;;5044617;28;20046;-77
2023/01/21 01:39:35;;;;;;;72.97;22.17;;;;;;;;;;5035607;28;20052;-78
2023/01/21 01:42:02;;;;;;;72.18;22.85;;;;;;;;;;5036710;28;20061;-79
2023/01/21 01:44:47;;;;;;;73.28;22.08;;;;;;;;;;5036019;28;20052;-79
2023/01/21 01:47:14;;;;;;;72.20;23.05;;;;;;;;;;5035141;28;20140;-80
2023/01/21 01:49:41;;;;;;;67.90;21.73;;;;;;;;;;5034883;28;20079;-79
2023/01/21 01:52:09;;;;;;;74.95;22.80;;;;;;;;;;5034708;28;20513;-79
2023/01/21 01:54:37;;;;;;;85.60;24.10;;;;;;;;;;5034547;28;20081;-78
2023/01/21 01:57:05;;;;;;;77.10;22.60;;;;;;;;;;5034424;28;20053;-78
2023/01/21 01:59:32;;;;;;;62.35;20.17;;;;;;;;;;5034261;28;20109;-78
2023/01/21 02:02:01;;;;;;;68.28;22.27;;;;;;;;;;5034505;28;20047;-78
2023/01/21 02:04:30;;;;;;;70.65;22.55;;;;;;;;;;5034823;28;20085;-78
2023/01/21 02:06:57;;;;;;;66.57;22.25;;;;;;;;;;5034735;28;20764;-79
2023/01/21 02:09:28;;;;;;;73.25;23.13;;;;;;;;;;5035165;28;20128;-79
2023/01/21 02:11:58;;;;;;;75.38;23.65;;;;;;;;;;5036892;28;20141;-79
2023/01/21 02:14:25;;;;;;;82.60;25.05;;;;;;;;;;5035886;28;20060;-78
2023/01/21 02:16:51;;;;;;;84.93;24.60;;;;;;;;;;5035092;28;20073;-79
2023/01/21 02:19:27;;;;;;;79.68;23.95;;;;;;;;;;5035108;28;20069;-78
2023/01/21 02:22:03;;;;;;;78.10;23.25;;;;;;;;;;5035538;28;20117;-78
2023/01/21 02:25:07;;;;;;;78.60;23.20;;;;;;;;;;5035862;28;20057;-78
2023/01/21 02:27:43;;;;;;;73.88;22.33;;;;;;;;;;4971348;28;20134;-78
2023/01/21 02:30:28;;;;;;;70.93;20.88;;;;;;;;;;4973018;28;20051;-78
2023/01/21 02:33:03;;;;;;;68.00;20.65;;;;;;;;;;5013263;28;20510;-78
2023/01/21 02:35:33;;;;;;;60.92;19.48;;;;;;;;;;5034616;28;20241;-78
2023/01/21 02:37:59;;;;;;;55.33;18.05;;;;;;;;;;5031520;28;20133;-77
2023/01/21 02:40:26;;;;;;;57.38;18.63;;;;;;;;;;5032085;28;20049;-78
2023/01/21 02:42:55;;;;;;;58.83;19.02;;;;;;;;;;5032208;28;20449;-79
2023/01/21 02:45:40;;;;;;;70.38;19.40;;;;;;;;;;5034149;28;20112;-80
2023/01/21 02:48:06;;;;;;;58.95;19.25;;;;;;;;;;5032755;28;20049;-78
2023/01/21 02:50:39;;;;;;;48.08;17.42;;;;;;;;;;5036076;28;20049;-79
2023/01/21 02:53:06;;;;;;;58.92;19.35;;;;;;;;;;5034114;28;20135;-79
2023/01/21 02:55:36;;;;;;;61.60;19.10;;;;;;;;;;5034824;28;20045;-78
2023/01/21 02:58:08;;;;;;;57.08;18.83;;;;;;;;;;5033859;28;20220;-77
2023/01/21 03:00:49;;;;;;;59.45;18.98;;;;;;;;;;5034022;28;20050;-78
2023/01/21 03:03:22;;;;;;;59.85;20.00;;;;;;;;;;5033905;28;20053;-79
2023/01/21 03:05:54;;;;;;;59.33;19.40;;;;;;;;;;5033962;28;20053;-78
2023/01/21 03:08:22;;;;;;;67.00;20.77;;;;;;;;;;5033613;28;20417;-78
2023/01/21 03:11:00;;;;;;;66.00;21.15;;;;;;;;;;5032675;28;20061;-79
2023/01/21 03:19:04;;;;;;;66.88;21.55;;;;;;;;;;5033558;28;20249;-78
2023/01/21 03:21:31;;;;;;;63.35;21.17;;;;;;;;;;5033704;28;20402;-79
2023/01/21 03:23:58;;;;;;;68.20;21.02;;;;;;;;;;5032190;28;20068;-79
2023/01/21 03:26:34;;;;;;;71.82;23.30;;;;;;;;;;5032978;28;20076;-79
2023/01/21 03:29:03;;;;;;;60.15;20.92;;;;;;;;;;5034119;28;20053;-79
2023/01/21 03:31:32;;;;;;;68.40;22.90;;;;;;;;;;5033552;28;20045;-78
2023/01/21 03:34:00;;;;;;;68.90;22.02;;;;;;;;;;5032294;28;20049;-77
2023/01/21 03:36:45;;;;;;;56.28;18.95;;;;;;;;;;5033253;28;20056;-78
2023/01/21 03:39:22;;;;;;;61.72;20.52;;;;;;;;;;5031323;28;20387;-78
2023/01/21 03:41:49;;;;;;;58.13;20.23;;;;;;;;;;5032784;28;20109;-78
2023/01/21 03:44:15;;;;;;;58.55;20.15;;;;;;;;;;5033168;28;20076;-78
2023/01/21 03:47:00;;;;;;;56.75;19.25;;;;;;;;;;5033230;28;20055;-80
2023/01/21 03:49:29;;;;;;;61.75;21.23;;;;;;;;;;5030696;28;20049;-78
2023/01/21 03:51:57;;;;;;;69.32;22.35;;;;;;;;;;5029943;28;20060;-78
2023/01/21 03:54:24;;;;;;;71.57;23.00;;;;;;;;;;5030118;28;20057;-78
2023/01/21 03:56:50;;;;;;;69.95;23.92;;;;;;;;;;5029604;28;20049;-78
2023/01/21 03:59:17;;;;;;;71.20;23.38;;;;;;;;;;5030601;28;20083;-79
2023/01/21 04:01:43;;;;;;;77.80;24.40;;;;;;;;;;5029712;28;20073;-78
2023/01/21 04:04:13;;;;;;;81.47;24.83;;;;;;;;;;5037086;28;20077;-78
2023/01/21 04:06:39;;;;;;;87.85;25.95;;;;;;;;;;5032606;28;20053;-78
2023/01/21 04:09:06;;;;;;;93.78;27.38;;;;;;;;;;5030296;28;20049;-78
2023/01/21 04:11:33;;;;;;;84.60;25.63;;;;;;;;;;5029979;28;20050;-76
2023/01/21 04:13:59;;;;;;;68.93;21.27;;;;;;;;;;5030704;28;20132;-78
2023/01/21 04:16:26;;;;;;;68.15;21.20;;;;;;;;;;5020609;28;20052;-79
2023/01/21 04:18:52;;;;;;;57.25;17.75;;;;;;;;;;5030550;28;20123;-78
2023/01/21 04:21:19;;;;;;;63.85;17.77;;;;;;;;;;5031301;28;20046;-78
2023/01/21 04:23:45;;;;;;;56.40;16.98;;;;;;;;;;5031253;28;20051;-79
2023/01/21 04:26:12;;;;;;;52.72;17.67;;;;;;;;;;5029554;28;20160;-77
2023/01/21 04:28:38;;;;;;;52.00;17.05;;;;;;;;;;5030492;28;20410;-78
2023/01/21 04:31:05;;;;;;;61.92;18.73;;;;;;;;;;5029350;28;20046;-78
2023/01/21 04:33:31;;;;;;;48.05;16.33;;;;;;;;;;5030420;28;20049;-77
2023/01/21 04:35:58;;;;;;;50.67;16.65;;;;;;;;;;5030248;28;20057;-78
2023/01/21 04:38:25;;;;;;;61.17;19.00;;;;;;;;;;5020557;28;20124;-78
2023/01/21 04:40:52;;;;;;;60.80;18.02;;;;;;;;;;5017987;28;20113;-78
2023/01/21 04:43:18;;;;;;;55.58;17.58;;;;;;;;;;5000726;28;20137;-78
2023/01/21 04:45:45;;;;;;;59.38;19.00;;;;;;;;;;5018488;28;20051;-79
2023/01/21 04:48:12;;;;;;;56.72;17.42;;;;;;;;;;5010893;28;20050;-78
2023/01/21 04:50:38;;;;;;;50.00;16.92;;;;;;;;;;5013997;28;20391;-78
2023/01/21 04:53:05;;;;;;;62.80;20.05;;;;;;;;;;5021998;28;20205;-80
2023/01/21 04:55:31;;;;;;;64.72;19.98;;;;;;;;;;5025179;28;20049;-80
2023/01/21 04:57:57;;;;;;;59.13;19.38;;;;;;;;;;5031096;28;20089;-79
2023/01/21 05:00:24;;;;;;;67.93;22.33;;;;;;;;;;5016313;28;20133;-80
2023/01/21 05:02:50;;;;;;;53.08;16.77;;;;;;;;;;5017657;28;20466;-79
2023/01/21 05:05:17;;;;;;;52.83;18.25;;;;;;;;;;5028945;28;20045;-78
2023/01/21 05:07:43;;;;;;;57.05;18.02;;;;;;;;;;5025426;28;20063;-78
2023/01/21 05:10:13;;;;;;;57.90;18.65;;;;;;;;;;5017450;28;20049;-74
2023/01/21 05:12:40;;;;;;;54.13;18.55;;;;;;;;;;5025504;28;20053;-74
2023/01/21 05:15:07;;;;;;;54.22;18.27;;;;;;;;;;5027521;28;20077;-74
2023/01/21 05:17:34;;;;;;;56.60;18.38;;;;;;;;;;5011468;28;20078;-74
2023/01/21 05:20:00;;;;;;;56.25;17.83;;;;;;;;;;5028198;28;20049;-79
2023/01/21 05:22:26;;;;;;;52.85;17.85;;;;;;;;;;5023958;28;20128;-76
2023/01/21 05:24:53;;;;;;;52.03;19.25;;;;;;;;;;5030561;28;20053;-78
2023/01/21 05:27:20;;;;;;;60.63;18.77;;;;;;;;;;5034988;28;20609;-77
2023/01/21 05:29:47;;;;;;;51.83;17.75;;;;;;;;;;5035622;28;20132;-77
2023/01/21 05:32:13;;;;;;;51.50;18.10;;;;;;;;;;5034506;28;20085;-78
2023/01/21 05:34:40;;;;;;;50.40;18.10;;;;;;;;;;5034896;28;20049;-78
2023/01/21 05:37:06;;;;;;;49.25;18.30;;;;;;;;;;5034695;28;20045;-78
2023/01/21 05:39:32;;;;;;;52.38;16.63;;;;;;;;;;5034519;28;20056;-78
2023/01/21 05:41:59;;;;;;;47.35;16.55;;;;;;;;;;5035799;28;20069;-78
2023/01/21 05:44:25;;;;;;;46.78;15.52;;;;;;;;;;5035463;28;20445;-78
2023/01/21 05:46:52;;;;;;;58.63;19.40;;;;;;;;;;5034598;28;20198;-78
2023/01/21 05:49:18;;;;;;;57.55;18.80;;;;;;;;;;5033314;28;20050;-78
2023/01/21 05:51:45;;;;;;;61.42;18.90;;;;;;;;;;5034773;28;20410;-79
2023/01/21 05:54:14;;;;;;;57.67;18.35;;;;;;;;;;5034586;28;20092;-79
2023/01/21 05:56:40;;;;;;;50.35;18.95;;;;;;;;;;5033853;28;20109;-78
2023/01/21 05:59:07;;;;;;;62.20;18.13;;;;;;;;;;5032916;28;20144;-78
2023/01/21 06:01:34;;;;;;;54.58;18.42;;;;;;;;;;5035014;28;20049;-79
2023/01/21 06:04:01;;;;;;;47.95;16.38;;;;;;;;;;5034981;28;20042;-78
2023/01/21 06:06:28;;;;;;;50.85;16.70;;;;;;;;;;5035432;28;20056;-78
2023/01/21 06:08:54;;;;;;;46.50;15.00;;;;;;;;;;5033909;28;20100;-78
2023/01/21 06:11:21;;;;;;;42.17;14.82;;;;;;;;;;5030166;28;20057;-78
2023/01/21 06:13:48;;;;;;;38.75;14.27;;;;;;;;;;5032007;28;20048;-78
2023/01/21 06:16:15;;;;;;;41.90;14.60;;;;;;;;;;5028910;28;20042;-77
2023/01/21 06:18:41;;;;;;;31.63;10.82;;;;;;;;;;5012381;28;20133;-78
2023/01/21 06:21:08;;;;;;;30.48;9.38;;;;;;;;;;5013153;28;20085;-77
2023/01/21 06:23:34;;;;;;;30.88;9.98;;;;;;;;;;4994802;28;20047;-78
2023/01/21 06:26:01;;;;;;;30.67;9.98;;;;;;;;;;5010900;28;20052;-78
2023/01/21 06:28:28;;;;;;;31.92;9.50;;;;;;;;;;5012763;28;20060;-78
2023/01/21 06:30:56;;;;;;;31.55;8.90;;;;;;;;;;5016108;28;20066;-76
2023/01/21 06:33:22;;;;;;;34.15;10.70;;;;;;;;;;4998708;28;20226;-78
2023/01/21 06:35:49;;;;;;;33.20;10.05;;;;;;;;;;5015858;28;20046;-77
2023/01/21 06:38:15;;;;;;;36.15;11.20;;;;;;;;;;5017662;28;20060;-78
2023/01/21 06:40:42;;;;;;;37.15;10.85;;;;;;;;;;5011028;28;20037;-78
2023/01/21 06:43:08;;;;;;;31.38;10.13;;;;;;;;;;5040129;28;20045;-77
2023/01/21 06:45:35;;;;;;;37.88;10.50;;;;;;;;;;5040474;28;20041;-78
2023/01/21 06:48:01;;;;;;;35.92;10.98;;;;;;;;;;5039992;28;20064;-78
2023/01/21 06:50:28;;;;;;;38.33;11.23;;;;;;;;;;5043890;28;20140;-78
2023/01/21 06:52:54;;;;;;;33.28;11.38;;;;;;;;;;5039559;28;20049;-78
2023/01/21 06:55:21;;;;;;;43.65;11.52;;;;;;;;;;5037557;28;20158;-78
2023/01/21 06:57:47;;;;;;;36.28;10.60;;;;;;;;;;5017312;28;20080;-78
2023/01/21 07:00:14;;;;;;;39.65;11.93;;;;;;;;;;5033216;28;20045;-77
2023/01/21 07:02:41;;;;;;;39.80;11.20;;;;;;;;;;5031920;28;20049;-77
2023/01/21 07:05:07;;;;;;;41.08;12.48;;;;;;;;;;5032768;28;20118;-77
2023/01/21 07:07:36;;;;;;;35.45;10.82;;;;;;;;;;5031890;28;20091;-77
2023/01/21 07:10:03;;;;;;;41.08;12.85;;;;;;;;;;5033104;28;20099;-78
2023/01/21 07:12:30;;;;;;;38.05;12.05;;;;;;;;;;5032736;28;20386;-77
2023/01/21 07:14:56;;;;;;;43.28;12.73;;;;;;;;;;5028446;28;20053;-78
2023/01/21 07:17:23;;;;;;;40.00;11.70;;;;;;;;;;5031199;28;20144;-77
2023/01/21 07:19:49;;;;;;;36.30;11.80;;;;;;;;;;5032064;28;20049;-78
2023/01/21 07:22:16;;;;;;;48.22;13.60;;;;;;;;;;5031789;28;20084;-78
2023/01/21 07:24:42;;;;;;;43.10;12.60;;;;;;;;;;5032273;28;20067;-78
2023/01/21 07:27:09;;;;;;;44.17;13.55;;;;;;;;;;5030721;28;20052;-78
2023/01/21 07:29:36;;;;;;;39.47;13.00;;;;;;;;;;5031570;28;20056;-78
2023/01/21 07:32:02;;;;;;;51.63;13.43;;;;;;;;;;5031315;28;20500;-78
2023/01/21 07:34:29;;;;;;;45.13;13.13;;;;;;;;;;5032338;28;20069;-78
2023/01/21 07:36:55;;;;;;;44.90;12.48;;;;;;;;;;5030534;28;20084;-77
2023/01/21 07:39:21;;;;;;;47.55;13.63;;;;;;;;;;5028524;28;20046;-79
2023/01/21 07:41:48;;;;;;;41.80;12.98;;;;;;;;;;5030540;28;20053;-78
2023/01/21 07:44:14;;;;;;;46.53;13.02;;;;;;;;;;5030996;28;20303;-78
2023/01/21 07:46:40;;;;;;;50.33;13.63;;;;;;;;;;5029772;28;20520;-78
2023/01/21 07:49:07;;;;;;;42.47;13.05;;;;;;;;;;5030403;28;20073;-78
2023/01/21 07:51:34;;;;;;;51.95;13.20;;;;;;;;;;5031238;28;20550;-78
2023/01/21 07:54:00;;;;;;;45.03;13.07;;;;;;;;;;5030970;28;20568;-78
2023/01/21 07:56:27;;;;;;;43.28;13.70;;;;;;;;;;5029403;28;20099;-78
2023/01/21 07:58:53;;;;;;;43.53;13.20;;;;;;;;;;5031156;28;20195;-78
2023/01/21 08:01:20;;;;;;;47.63;14.75;;;;;;;;;;5031238;28;20060;-78
2023/01/21 08:03:50;;;;;;;42.10;12.88;;;;;;;;;;5032536;28;20112;-77
2023/01/21 08:06:16;;;;;;;48.20;13.77;;;;;;;;;;5033542;28;20398;-79
2023/01/21 08:08:43;;;;;;;43.53;13.13;;;;;;;;;;5033066;28;20052;-78
2023/01/21 08:11:09;;;;;;;44.30;13.55;;;;;;;;;;5032075;28;20076;-78
2023/01/21 08:13:35;;;;;;;43.15;12.60;;;;;;;;;;5033195;28;20087;-79
2023/01/21 08:16:03;;;;;;;50.40;14.57;;;;;;;;;;5032338;28;20487;-78
2023/01/21 08:18:29;;;;;;;45.83;14.25;;;;;;;;;;5032826;28;20133;-80
2023/01/21 08:20:57;;;;;;;53.53;15.90;;;;;;;;;;5032511;28;20053;-80
2023/01/21 08:23:24;;;;;;;45.65;15.52;;;;;;;;;;5032675;28;20081;-78
2023/01/21 08:25:50;;;;;;;43.58;12.93;;;;;;;;;;5030097;28;20080;-79
2023/01/21 08:28:17;;;;;;;55.55;13.68;;;;;;;;;;5035585;28;20073;-79
2023/01/21 08:30:44;;;;;;;47.88;14.88;;;;;;;;;;5033780;28;20132;-78
2023/01/21 08:33:11;;;;;;;44.00;14.27;;;;;;;;;;5036637;28;20160;-79
2023/01/21 08:35:37;;;;;;;44.08;14.23;;;;;;;;;;5036634;28;20531;-79
2023/01/21 08:38:04;;;;;;;44.53;14.52;;;;;;;;;;5035581;28;20415;-78
2023/01/21 08:40:30;;;;;;;53.90;17.02;;;;;;;;;;5035612;28;20046;-77
2023/01/21 08:43:01;;;;;;;43.53;13.65;;;;;;;;;;5035133;28;20064;-78
2023/01/21 08:45:28;;;;;;;44.85;14.48;;;;;;;;;;5035968;28;20056;-79
2023/01/21 08:47:54;;;;;;;40.10;14.20;;;;;;;;;;5035060;28;20057;-79
2023/01/21 08:50:21;;;;;;;47.78;15.90;;;;;;;;;;5035236;28;20133;-78
2023/01/21 08:52:51;;;;;;;44.08;14.73;;;;;;;;;;5035653;28;20073;-79
2023/01/21 08:55:18;;;;;;;47.83;16.08;;;;;;;;;;5038491;28;20049;-78
2023/01/21 08:57:45;;;;;;;54.05;15.98;;;;;;;;;;5043307;28;20060;-78
2023/01/21 09:00:13;;;;;;;53.20;16.85;;;;;;;;;;5042352;28;20136;-78
2023/01/21 09:02:39;;;;;;;45.92;15.13;;;;;;;;;;5036077;28;20086;-78
2023/01/21 09:05:06;;;;;;;48.03;14.88;;;;;;;;;;5035010;28;20053;-78
2023/01/21 09:07:32;;;;;;;45.80;15.48;;;;;;;;;;5034579;28;20417;-78
2023/01/21 09:09:59;;;;;;;47.55;15.43;;;;;;;;;;5034441;28;20046;-79
2023/01/21 09:12:25;;;;;;;45.20;15.82;;;;;;;;;;5037357;28;20061;-79
2023/01/21 09:14:51;;;;;;;45.97;15.95;;;;;;;;;;5034498;28;20505;-78
2023/01/21 09:17:18;;;;;;;45.42;15.25;;;;;;;;;;5035693;28;20436;-76
2023/01/21 09:19:44;;;;;;;45.03;15.43;;;;;;;;;;5037394;28;20050;-79
2023/01/21 09:22:12;;;;;;;45.65;14.35;;;;;;;;;;5037650;28;20056;-78
2023/01/21 09:24:39;;;;;;;44.08;13.43;;;;;;;;;;5034012;28;20065;-78
2023/01/21 09:27:05;;;;;;;48.08;14.07;;;;;;;;;;5035723;28;20060;-79
2023/01/21 09:29:32;;;;;;;39.28;14.32;;;;;;;;;;5036818;28;20045;-79
2023/01/21 09:31:59;;;;;;;36.60;12.50;;;;;;;;;;5036074;28;20081;-79
2023/01/21 09:34:25;;;;;;;46.70;14.75;;;;;;;;;;5036205;28;20115;-78
2023/01/21 09:36:51;;;;;;;38.33;13.18;;;;;;;;;;5035972;28;20046;-79
2023/01/21 09:39:18;;;;;;;41.42;14.77;;;;;;;;;;5036063;28;20068;-79
2023/01/21 09:41:48;;;;;;;47.17;15.55;;;;;;;;;;5035812;28;20130;-77
2023/01/21 09:44:33;;;;;;;43.65;14.25;;;;;;;;;;5034842;28;20041;-77
2023/01/21 09:47:02;;;;;;;40.10;15.33;;;;;;;;;;5034466;28;20527;-78
2023/01/21 09:49:35;;;;;;;62.40;20.33;;;;;;;;;;5035982;28;20056;-78
2023/01/21 09:52:01;;;;;;;63.25;20.83;;;;;;;;;;5039513;28;20065;-79
2023/01/21 09:54:29;;;;;;;67.43;22.65;;;;;;;;;;5043519;28;20056;-79
2023/01/21 09:57:06;;;;;;;69.07;22.00;;;;;;;;;;5042923;28;20045;-79
2023/01/21 09:59:39;;;;;;;70.07;19.35;;;;;;;;;;5042771;28;20050;-79
2023/01/21 10:02:13;;;;;;;43.47;15.85;;;;;;;;;;5047436;28;20055;-79
2023/01/21 10:04:46;;;;;;;45.47;14.87;;;;;;;;;;5033984;28;20041;-79
2023/01/21 10:07:14;;;;;;;51.53;17.65;;;;;;;;;;5035620;28;20053;-78
2023/01/21 10:09:43;;;;;;;56.35;20.70;;;;;;;;;;5034032;28;20061;-78
2023/01/21 10:12:10;;;;;;;58.90;17.95;;;;;;;;;;5034427;28;20049;-79
2023/01/21 10:14:45;;;;;;;51.97;18.30;;;;;;;;;;5032811;28;20046;-78
2023/01/21 10:17:14;;;;;;;52.90;17.60;;;;;;;;;;5032234;28;20068;-76
2023/01/21 10:19:44;;;;;;;54.67;17.77;;;;;;;;;;5032294;28;20402;-78
2023/01/21 10:22:16;;;;;;;63.63;20.00;;;;;;;;;;5032167;28;20569;-78
2023/01/21 10:24:46;;;;;;;58.05;18.67;;;;;;;;;;5031048;28;20077;-79
2023/01/21 10:27:17;;;;;;;47.13;16.98;;;;;;;;;;5031551;28;20056;-78
2023/01/21 10:29:46;;;;;;;42.20;15.55;;;;;;;;;;5032786;28;20054;-78
2023/01/21 10:32:14;;;;;;;50.28;16.65;;;;;;;;;;5032758;28;20132;-78
2023/01/21 10:34:46;;;;;;;59.95;19.10;;;;;;;;;;5031997;28;20077;-78
2023/01/21 10:37:12;;;;;;;41.53;14.80;;;;;;;;;;5032036;28;20049;-77
2023/01/21 10:39:54;;;;;;;47.17;16.42;;;;;;;;;;5030440;28;20072;-78
2023/01/21 10:42:35;;;;;;;45.80;15.10;;;;;;;;;;5032011;28;20048;-78
2023/01/21 10:45:19;;;;;;;43.55;14.65;;;;;;;;;;5033039;28;20052;-79
2023/01/21 10:48:01;;;;;;;39.28;13.18;;;;;;;;;;5033215;28;20049;-79
2023/01/21 10:50:42;;;;;;;46.08;16.27;;;;;;;;;;5032936;28;20091;-80
2023/01/21 10:53:18;;;;;;;53.58;17.05;;;;;;;;;;5032313;28;20049;-79
2023/01/21 10:55:59;;;;;;;31.48;12.05;;;;;;;;;;5033343;28;20053;-79
2023/01/21 10:58:38;;;;;;;35.58;13.43;;;;;;;;;;5031588;28;20060;-79
2023/01/21 11:01:06;;;;;;;38.50;12.85;;;;;;;;;;5030755;28;20072;-78
2023/01/21 11:03:37;;;;;;;35.35;11.90;;;;;;;;;;5033424;28;20481;-79
2023/01/21 11:06:07;;;;;;;35.30;12.63;;;;;;;;;;5032383;28;20041;-78
2023/01/21 11:08:33;;;;;;;29.67;11.43;;;;;;;;;;5030821;28;20096;-78
2023/01/21 11:11:00;;;;;;;32.65;11.27;;;;;;;;;;5031435;28;20053;-79
2023/01/21 11:13:27;;;;;;;31.90;11.25;;;;;;;;;;5032008;28;20132;-79
2023/01/21 11:15:55;;;;;;;35.58;12.40;;;;;;;;;;5032275;28;20064;-79
2023/01/21 11:18:35;;;;;;;32.90;13.25;;;;;;;;;;5037890;28;20053;-78
2023/01/21 11:21:08;;;;;;;35.05;12.50;;;;;;;;;;5041475;28;20136;-79
2023/01/21 11:23:38;;;;;;;31.73;12.52;;;;;;;;;;5034467;28;20417;-79
2023/01/21 11:26:06;;;;;;;39.63;13.88;;;;;;;;;;5038552;28;20080;-79
2023/01/21 11:28:35;;;;;;;34.42;12.05;;;;;;;;;;5039101;28;20429;-79
2023/01/21 11:31:23;;;;;;;33.97;12.20;;;;;;;;;;5032709;28;20049;-79
2023/01/21 11:33:51;;;;;;;34.90;12.80;;;;;;;;;;5032531;28;20061;-77
2023/01/21 11:36:19;;;;;;;32.85;12.85;;;;;;;;;;5031419;28;20092;-78
2023/01/21 11:38:47;;;;;;;33.42;13.10;;;;;;;;;;5029073;28;20045;-78
2023/01/21 11:41:16;;;;;;;30.45;12.60;;;;;;;;;;5030972;28;20498;-79
2023/01/21 11:43:44;;;;;;;32.78;12.50;;;;;;;;;;5031702;28;20539;-79
2023/01/21 11:46:20;;;;;;;32.40;11.98;;;;;;;;;;5031423;28;20109;-78
2023/01/21 11:48:46;;;;;;;43.72;17.13;;;;;;;;;;5028924;28;20053;-78
2023/01/21 11:51:13;;;;;;;41.38;14.63;;;;;;;;;;5030960;28;20049;-78
2023/01/21 11:53:40;;;;;;;41.30;16.02;;;;;;;;;;5029152;28;20073;-78
2023/01/21 11:56:06;;;;;;;42.22;15.88;;;;;;;;;;5026374;28;20425;-79
2023/01/21 11:58:39;;;;;;;46.25;16.42;;;;;;;;;;5029149;28;20053;-79
2023/01/21 12:01:17;;;;;;;48.33;17.50;;;;;;;;;;5031003;28;20092;-78
2023/01/21 12:03:48;;;;;;;43.17;14.25;;;;;;;;;;5034403;28;20052;-79
2023/01/21 12:06:24;;;;;;;43.03;15.93;;;;;;;;;;5036904;28;20052;-78
2023/01/21 12:08:52;;;;;;;39.45;14.60;;;;;;;;;;5031809;28;20516;-77
2023/01/21 12:11:20;;;;;;;36.42;14.25;;;;;;;;;;5033856;28;20083;-78
2023/01/21 12:13:52;;;;;;;41.03;15.27;;;;;;;;;;5036276;28;20091;-79
2023/01/21 12:16:25;;;;;;;40.72;15.93;;;;;;;;;;5040378;28;20053;-78
2023/01/21 12:18:57;;;;;;;38.70;13.50;;;;;;;;;;5038773;28;20285;-78
2023/01/21 12:21:36;;;;;;;33.75;13.40;;;;;;;;;;5035158;28;20073;-78
2023/01/21 12:24:26;;;;;;;39.20;14.50;;;;;;;;;;5035406;28;20045;-79
2023/01/21 12:27:01;;;;;;;31.00;13.07;;;;;;;;;;5001769;28;20050;-78
2023/01/21 12:29:37;;;;;;;35.92;15.02;;;;;;;;;;5030091;28;20057;-79
2023/01/21 12:32:22;;;;;;;37.25;14.82;;;;;;;;;;5030591;28;20497;-78
2023/01/21 12:34:49;;;;;;;;;;;;;;;;;;5029996;28;20065;-78
2023/01/21 12:37:21;;;;;;;30.63;12.88;;;;;;;;;;5030734;28;20020;-78
2023/01/21 12:39:48;;;;;;;30.98;13.30;;;;;;;;;;5029754;28;20053;-78
2023/01/21 12:42:39;;;;;;;37.95;14.95;;;;;;;;;;5028587;28;20133;-78
2023/01/21 12:45:11;;;;;;;42.00;15.02;;;;;;;;;;5022413;28;20365;-79
2023/01/21 12:47:44;;;;;;;39.95;15.95;;;;;;;;;;5028033;28;20497;-78
2023/01/21 12:50:22;;;;;;;35.58;13.60;;;;;;;;;;5030608;28;20053;-78
2023/01/21 12:53:01;;;;;;;38.25;16.00;;;;;;;;;;5029672;28;20055;-79
2023/01/21 12:55:32;;;;;;;56.85;18.70;;;;;;;;;;5030771;28;20056;-78
2023/01/21 12:58:03;;;;;;;40.72;15.20;;;;;;;;;;5030785;28;20049;-78
2023/01/21 13:00:31;;;;;;;51.85;18.92;;;;;;;;;;5030846;28;20093;-78
2023/01/21 13:03:07;;;;;;;30.08;11.07;;;;;;;;;;5030258;28;20049;-78
2023/01/21 13:05:48;;;;;;;41.28;15.60;;;;;;;;;;5030461;28;20441;-79
2023/01/21 13:08:29;;;;;;;34.38;13.90;;;;;;;;;;5028794;28;20060;-78
2023/01/21 13:10:58;;;;;;;31.98;12.80;;;;;;;;;;5027689;28;20053;-78
2023/01/21 13:13:30;;;;;;;30.60;12.77;;;;;;;;;;5031340;28;20439;-77
2023/01/21 13:15:59;;;;;;;35.42;14.32;;;;;;;;;;5031602;28;20049;-78
2023/01/21 13:18:29;;;;;;;32.97;14.23;;;;;;;;;;5031784;28;20525;-77
2023/01/21 13:20:59;;;;;;;34.30;13.93;;;;;;;;;;5033354;28;20492;-77
2023/01/21 13:23:31;;;;;;;36.05;13.65;;;;;;;;;;5034125;28;20041;-78
2023/01/21 13:25:57;;;;;;;35.75;14.38;;;;;;;;;;5030942;28;20068;-78
2023/01/21 13:28:31;;;;;;;33.13;14.70;;;;;;;;;;5033067;28;20046;-79
2023/01/21 13:31:07;;;;;;;28.52;12.98;;;;;;;;;;5033463;28;20061;-79
2023/01/21 13:33:57;;;;;;;30.13;12.57;;;;;;;;;;5033194;28;20474;-79
2023/01/21 13:36:32;;;;;;;36.60;13.98;;;;;;;;;;5025872;28;20491;-78
2023/01/21 13:38:59;;;;;;;33.13;12.90;;;;;;;;;;5033346;28;20502;-78
2023/01/21 13:41:34;;;;;;;33.15;11.93;;;;;;;;;;5033031;28;20056;-79
2023/01/21 13:44:19;;;;;;;31.95;13.68;;;;;;;;;;5033709;28;20136;-78
2023/01/21 13:47:06;;;;;;;27.13;11.50;;;;;;;;;;5038540;28;20042;-78
2023/01/21 13:49:39;;;;;;;29.63;11.10;;;;;;;;;;5038599;28;20053;-78
2023/01/21 13:52:16;;;;;;;27.50;10.70;;;;;;;;;;5031560;28;20049;-77
2023/01/21 13:54:45;;;;;;;30.25;11.50;;;;;;;;;;5031020;28;20051;-79
2023/01/21 13:57:21;;;;;;;27.92;10.90;;;;;;;;;;5033513;28;20052;-77
2023/01/21 13:59:53;;;;;;;25.33;10.60;;;;;;;;;;5033438;28;20052;-78
2023/01/21 14:02:19;;;;;;;28.90;11.15;;;;;;;;;;5033117;28;20042;-79
2023/01/21 14:04:56;;;;;;;28.25;11.57;;;;;;;;;;5032410;28;20045;-78
2023/01/21 14:07:28;;;;;;;31.20;11.57;;;;;;;;;;5033419;28;20050;-79
2023/01/21 14:10:01;;;;;;;25.83;11.32;;;;;;;;;;5031632;28;20045;-78
2023/01/21 14:12:51;;;;;;;30.08;12.20;;;;;;;;;;5032667;28;20115;-78
2023/01/21 14:15:33;;;;;;;25.65;11.23;;;;;;;;;;5031874;28;20508;-78
2023/01/21 14:18:04;;;;;;;30.17;12.13;;;;;;;;;;5031774;28;20148;-79
2023/01/21 14:20:42;;;;;;;32.08;11.82;;;;;;;;;;5034489;28;20529;-78
2023/01/21 14:23:33;;;;;;;36.15;12.38;;;;;;;;;;5033949;28;20485;-78
2023/01/21 14:25:59;;;;;;;34.85;12.35;;;;;;;;;;5031545;28;20408;-79
2023/01/21 14:28:48;;;;;;;27.40;11.18;;;;;;;;;;5033266;28;20049;-78
2023/01/21 14:31:15;;;;;;;41.75;14.40;;;;;;;;;;5030898;28;20049;-79
2023/01/21 14:33:45;;;;;;;53.85;17.35;;;;;;;;;;5030929;28;20049;-81
2023/01/21 14:36:15;;;;;;;48.83;14.88;;;;;;;;;;5031943;28;20045;-81
2023/01/21 14:39:20;;;;;;;42.65;13.02;;;;;;;;;;5033494;28;20041;-80